Time;durP1;ratioP1;P1;durP2;ratioP2;P2;SDS_P1;SDS_P2;PMS_P1;PMS_P2;Temp;Humidity;BMP_temperature;BMP_pressure;BME280_temperature;BME280_humidity;BME280_pressure;Samples;Min_cycle;Max_cycle;Signal;HPM_P1;HPM_P2
2023/01/16 00:01:17;;;;;;;14.07;2.60;;;;;;;3.14;100.00;97663.91;5074340;28;20025;-93
2023/01/16 00:03:42;;;;;;;15.15;2.63;;;;;;;3.14;100.00;97674.91;5074178;28;20020;-93
2023/01/16 00:06:08;;;;;;;18.65;3.22;;;;;;;3.09;100.00;97676.16;5073828;28;20031;-93
2023/01/16 00:08:33;;;;;;;17.08;2.90;;;;;;;2.89;100.00;97642.72;5074382;28;20032;-93
2023/01/16 00:10:59;;;;;;;18.20;3.78;;;;;;;3.05;100.00;97656.91;5074153;28;20111;-92
2023/01/16 00:13:24;;;;;;;22.17;3.95;;;;;;;2.89;100.00;97647.00;5074184;28;20470;-93
2023/01/16 00:15:50;;;;;;;17.25;3.40;;;;;;;2.91;100.00;97623.03;5073920;28;20020;-92
2023/01/16 00:18:17;;;;;;;9.90;2.85;;;;;;;2.93;100.00;97641.59;5073728;28;20031;-93
2023/01/16 00:20:43;;;;;;;13.05;3.45;;;;;;;2.91;100.00;97638.31;5074069;28;20021;-93
2023/01/16 00:23:10;;;;;;;11.85;2.88;;;;;;;2.91;100.00;97620.50;5073407;28;20466;-92
2023/01/16 00:25:41;;;;;;;15.68;2.95;;;;;;;2.90;100.00;97636.72;5073456;28;20036;-93
2023/01/16 00:28:08;;;;;;;21.80;3.30;;;;;;;2.62;100.00;97639.56;5073775;28;20153;-92
2023/01/16 00:30:33;;;;;;;17.90;2.70;;;;;;;2.47;100.00;97624.44;5073508;28;20028;-93
2023/01/16 00:32:59;;;;;;;21.08;3.50;;;;;;;2.45;100.00;97621.19;5073147;28;20081;-93
2023/01/16 00:35:26;;;;;;;13.40;2.90;;;;;;;2.47;100.00;97614.25;5073486;28;20017;-92
2023/01/16 00:37:52;;;;;;;15.27;3.03;;;;;;;2.50;100.00;97603.84;5072984;28;20028;-92
2023/01/16 00:40:17;;;;;;;14.02;2.40;;;;;;;2.45;100.00;97588.09;5073275;28;20024;-92
2023/01/16 00:42:43;;;;;;;15.43;3.33;;;;;;;2.57;100.00;97599.16;5074441;28;20382;-93
2023/01/16 00:45:09;;;;;;;20.58;3.60;;;;;;;2.45;100.00;97580.47;5073176;28;20055;-92
2023/01/16 00:47:34;;;;;;;15.95;3.15;;;;;;;2.40;100.00;97569.78;5072959;28;20062;-92
2023/01/16 00:50:00;;;;;;;22.05;4.28;;;;;;;2.46;100.00;97581.25;5073276;28;20024;-92
2023/01/16 00:52:25;;;;;;;29.75;4.35;;;;;;;2.48;100.00;97570.06;5074106;28;20043;-92
2023/01/16 00:54:51;;;;;;;16.83;3.15;;;;;;;2.36;100.00;97560.72;5072877;28;20428;-91
2023/01/16 00:57:16;;;;;;;17.50;3.85;;;;;;;2.36;100.00;97550.56;5072510;28;20475;-92
2023/01/16 00:59:42;;;;;;;13.57;2.90;;;;;;;2.63;100.00;97554.63;5072860;28;20031;-93
2023/01/16 01:02:07;;;;;;;22.10;3.60;;;;;;;2.56;100.00;97544.88;5072552;28;20025;-93
2023/01/16 01:04:33;;;;;;;15.77;3.13;;;;;;;2.29;100.00;97545.09;5072829;28;20025;-92
2023/01/16 01:06:58;;;;;;;18.58;3.40;;;;;;;2.22;100.00;97523.56;5072378;28;20032;-92
2023/01/16 01:09:24;;;;;;;21.80;4.05;;;;;;;2.43;100.00;97526.28;5072103;28;20028;-92
2023/01/16 01:11:49;;;;;;;19.27;2.72;;;;;;;2.40;100.00;97507.91;5073648;28;20021;-92
2023/01/16 01:14:15;;;;;;;17.98;3.13;;;;;;;2.42;100.00;97506.88;5073604;28;20389;-91
2023/01/16 01:16:40;;;;;;;22.30;3.40;;;;;;;2.51;100.00;97508.75;5072068;28;20025;-93
2023/01/16 01:19:06;;;;;;;24.95;3.28;;;;;;;2.47;100.00;97502.25;5072637;28;20482;-92
2023/01/16 01:21:31;;;;;;;19.58;3.08;;;;;;;2.22;100.00;97467.56;5072002;28;20032;-91
2023/01/16 01:23:57;;;;;;;19.27;4.18;;;;;;;2.54;100.00;97498.34;5072408;28;20532;-91
2023/01/16 01:26:23;;;;;;;18.73;2.88;;;;;;;2.57;100.00;97487.94;5073371;28;20024;-91
2023/01/16 01:28:48;;;;;;;24.63;4.20;;;;;;;2.68;100.00;97478.69;5072188;28;20028;-92
2023/01/16 01:31:14;;;;;;;24.75;2.65;;;;;;;2.49;100.00;97462.22;5071685;28;20073;-92
2023/01/16 01:33:40;;;;;;;20.25;2.58;;;;;;;2.54;100.00;97462.72;5072358;28;20100;-93
2023/01/16 01:36:06;;;;;;;13.73;2.67;;;;;;;2.62;100.00;97474.88;5072095;28;20051;-92
2023/01/16 01:38:33;;;;;;;10.77;2.50;;;;;;;2.54;100.00;97461.91;5073213;28;20111;-92
2023/01/16 01:40:58;;;;;;;9.75;2.47;;;;;;;2.40;100.00;97432.34;5073236;28;20028;-92
2023/01/16 01:43:41;;;;;;;14.52;2.88;;;;;;;2.62;100.00;97462.16;5071851;28;20025;-93
2023/01/16 01:46:07;;;;;;;20.85;2.80;;;;;;;2.48;100.00;97442.78;5073146;28;20024;-91
2023/01/16 01:48:40;;;;;;;28.60;2.80;;;;;;;2.42;100.00;97438.13;5072997;28;20090;-92
2023/01/16 01:51:12;;;;;;;26.42;2.70;;;;;;;2.63;100.00;97447.69;5072054;28;20033;-92
2023/01/16 01:53:51;;;;;;;17.05;2.22;;;;;;;2.65;100.00;97433.09;5073104;28;20082;-91
2023/01/16 01:56:44;;;;;;;25.90;6.05;;;;;;;2.67;100.00;97438.91;5071372;28;20033;-92
2023/01/16 01:59:20;;;;;;;19.60;2.20;;;;;;;2.64;100.00;97437.38;5072871;28;20055;-91
2023/01/16 02:01:46;;;;;;;15.00;2.47;;;;;;;2.52;100.00;97428.91;5071677;28;20174;-92
2023/01/16 02:04:22;;;;;;;20.63;2.92;;;;;;;2.52;100.00;97411.09;5071809;28;20456;-92
2023/01/16 02:06:55;;;;;;;16.45;1.92;;;;;;;2.58;100.00;97432.72;5070739;28;20029;-93
2023/01/16 02:09:23;;;;;;;15.32;1.85;;;;;;;2.60;100.00;97425.00;5071463;28;20163;-91
2023/01/16 02:11:53;;;;;;;13.90;2.50;;;;;;;2.71;100.00;97419.94;5071698;28;20021;-93
2023/01/16 02:14:20;;;;;;;25.67;2.22;;;;;;;2.76;100.00;97421.19;5071603;28;20025;-92
2023/01/16 02:19:38;;;;;;;22.48;2.30;;;;;;;2.84;100.00;97413.00;5072724;28;20429;-92
2023/01/16 02:22:34;;;;;;;18.27;2.15;;;;;;;3.00;100.00;97412.66;5071243;28;20029;-93
2023/01/16 02:25:35;;;;;;;10.35;1.77;;;;;;;2.91;100.00;97409.06;5071201;28;20036;-92
2023/01/16 02:28:15;;;;;;;20.20;2.15;;;;;;;2.96;100.00;97409.53;5013614;28;20435;-92
2023/01/16 02:31:07;;;;;;;19.42;2.13;;;;;;;2.92;100.00;97405.56;5081378;28;20090;-92
2023/01/16 02:34:20;;;;;;;20.83;2.30;;;;;;;2.98;100.00;97399.22;5071173;28;20024;-92
2023/01/16 02:37:04;;;;;;;16.67;2.40;;;;;;;2.95;100.00;97399.44;5047738;28;20123;-92
2023/01/16 02:39:51;;;;;;;19.58;3.08;;;;;;;2.95;100.00;97400.28;5072337;28;20028;-92
2023/01/16 02:42:33;;;;;;;14.13;1.55;;;;;;;2.92;100.00;97390.28;5070951;28;20363;-93
2023/01/16 02:45:01;;;;;;;;;;;;;;;3.17;100.00;97414.75;5071587;28;20021;-93
2023/01/16 02:47:43;;;;;;;13.73;1.60;;;;;;;2.97;100.00;97380.56;5071080;28;19912;-93
2023/01/16 02:50:17;;;;;;;11.20;1.23;;;;;;;3.09;100.00;97401.75;5071254;28;20081;-92
2023/01/16 02:53:01;;;;;;;18.40;2.58;;;;;;;3.14;100.00;97403.97;5071128;28;20032;-92
2023/01/16 02:55:38;;;;;;;15.05;3.47;;;;;;;3.05;100.00;97397.84;5066404;28;20036;-92
2023/01/16 02:58:06;;;;;;;14.88;2.88;;;;;;;3.13;100.00;97397.25;5065591;28;20020;-94
2023/01/16 03:00:34;;;;;;;16.50;2.78;;;;;;;2.94;100.00;97388.44;5071004;28;20482;-93
2023/01/16 03:02:59;;;;;;;17.80;3.08;;;;;;;2.94;100.00;97391.00;5070769;28;20032;-92
2023/01/16 03:05:26;;;;;;;26.52;3.35;;;;;;;2.91;100.00;97383.59;5070941;28;20070;-92
2023/01/16 03:08:04;;;;;;;19.25;2.30;;;;;;;3.07;100.00;97398.50;5071019;28;20920;-92
2023/01/16 03:10:37;;;;;;;18.02;2.85;;;;;;;2.93;100.00;97406.41;5071075;28;20029;-92
2023/01/16 03:13:21;;;;;;;14.73;3.30;;;;;;;2.88;100.00;97394.00;5070832;28;20028;-93
2023/01/16 03:15:50;;;;;;;14.80;3.25;;;;;;;2.88;100.00;97409.31;5070742;28;20031;-93
2023/01/16 03:18:22;;;;;;;19.70;3.47;;;;;;;2.84;100.00;97382.44;5073211;28;20028;-92
2023/01/16 03:21:04;;;;;;;15.32;3.75;;;;;;;2.77;100.00;97373.63;5076063;28;20024;-93
2023/01/16 03:24:19;;;;;;;17.95;3.50;;;;;;;2.86;100.00;97379.78;5074825;28;20111;-93
2023/01/16 03:26:54;;;;;;;19.85;3.28;;;;;;;2.85;100.00;97389.13;5075642;28;20036;-93
2023/01/16 03:29:36;;;;;;;19.13;4.25;;;;;;;2.78;100.00;97382.91;5074666;28;20028;-93
2023/01/16 03:32:34;;;;;;;13.20;3.50;;;;;;;2.82;100.00;97391.91;5074694;28;20090;-93
2023/01/16 03:35:10;;;;;;;12.68;4.30;;;;;;;2.71;100.00;97399.56;5074700;28;20016;-92
2023/01/16 03:37:41;;;;;;;19.13;3.40;;;;;;;2.63;100.00;97382.28;5074525;28;20500;-92
2023/01/16 03:40:15;;;;;;;16.50;3.80;;;;;;;2.71;100.00;97415.66;5074597;28;20027;-93
2023/01/16 03:42:52;;;;;;;17.88;3.70;;;;;;;2.72;100.00;97403.72;5074316;28;20297;-93
2023/01/16 03:45:28;;;;;;;25.58;3.70;;;;;;;2.69;100.00;97403.94;5075538;28;20024;-91
2023/01/16 03:48:21;;;;;;;21.02;3.63;;;;;;;2.71;100.00;97397.00;5074128;28;20025;-92
2023/01/16 03:50:56;;;;;;;14.88;3.10;;;;;;;2.67;100.00;97398.16;5073782;28;20043;-92
2023/01/16 03:53:27;;;;;;;11.10;2.78;;;;;;;2.73;100.00;97426.53;5074057;28;20024;-93
2023/01/16 03:56:01;;;;;;;15.27;3.40;;;;;;;2.69;100.00;97429.41;5074249;28;20024;-93
2023/01/16 03:58:35;;;;;;;15.98;3.47;;;;;;;2.64;100.00;97428.94;5074201;28;20770;-92
2023/01/16 04:01:10;;;;;;;15.38;3.35;;;;;;;2.51;100.00;97427.28;5074114;28;20027;-93
2023/01/16 04:03:53;;;;;;;21.63;3.50;;;;;;;2.49;100.00;97424.03;5075226;28;20389;-92
2023/01/16 04:06:59;;;;;;;26.17;4.63;;;;;;;2.48;100.00;97440.22;5073818;28;20020;-92
2023/01/16 04:09:34;;;;;;;17.77;3.83;;;;;;;2.48;100.00;97424.94;5074258;28;20037;-92
2023/01/16 04:12:02;;;;;;;23.60;3.10;;;;;;;2.37;100.00;97422.38;5074036;28;20068;-93
2023/01/16 04:14:29;;;;;;;20.33;4.18;;;;;;;2.45;100.00;97435.38;5074007;28;20021;-93
2023/01/16 04:16:55;;;;;;;14.52;3.53;;;;;;;2.45;100.00;97427.72;5074892;28;20493;-93
2023/01/16 04:19:22;;;;;;;20.33;3.08;;;;;;;2.60;100.00;97440.25;5073869;28;20037;-93
2023/01/16 04:21:47;;;;;;;10.35;2.40;;;;;;;2.55;100.00;97435.50;5073726;28;20386;-92
2023/01/16 04:24:14;;;;;;;16.95;2.78;;;;;;;2.52;100.00;97439.09;5074933;28;20024;-93
2023/01/16 04:26:40;;;;;;;12.98;2.92;;;;;;;2.45;100.00;97426.91;5074103;28;20024;-93
2023/01/16 04:29:05;;;;;;;14.25;2.20;;;;;;;2.55;100.00;97449.03;5073369;28;20024;-92
2023/01/16 04:31:31;;;;;;;9.88;2.38;;;;;;;2.37;100.00;97424.94;5073886;28;20056;-93
2023/01/16 04:33:56;;;;;;;11.88;2.88;;;;;;;2.42;100.00;97433.03;5073533;28;20070;-93
2023/01/16 04:36:22;;;;;;;14.07;2.40;;;;;;;2.29;100.00;97439.94;5073631;28;20051;-94
2023/01/16 04:38:47;;;;;;;6.13;1.58;;;;;;;2.39;100.00;97443.47;5090552;28;20028;-93
2023/01/16 04:41:35;;;;;;;16.17;2.10;;;;;;;2.50;100.00;97451.13;5073445;28;20034;-93
2023/01/16 04:43:58;;;;;;;17.77;2.10;;;;;;;2.27;100.00;97464.69;5074667;28;20119;-93
2023/01/16 04:46:24;;;;;;;12.90;2.55;;;;;;;2.31;100.00;97450.81;5074521;28;20099;-93
2023/01/16 04:48:49;;;;;;;11.82;2.20;;;;;;;2.24;100.00;97452.16;5073290;28;20036;-92
2023/01/16 04:51:15;;;;;;;14.40;2.95;;;;;;;2.10;100.00;97443.81;5074366;28;20394;-93
2023/01/16 04:53:40;;;;;;;12.82;2.35;;;;;;;2.18;100.00;97470.44;5073113;28;20111;-92
2023/01/16 04:56:06;;;;;;;12.00;4.60;;;;;;;2.06;100.00;97462.72;5089764;28;20382;-93
2023/01/16 04:58:31;;;;;;;19.83;5.10;;;;;;;2.14;100.00;97480.81;5072978;28;20112;-93
2023/01/16 05:00:57;;;;;;;7.65;2.40;;;;;;;2.04;100.00;97456.94;5073089;28;20436;-93
2023/01/16 05:03:22;;;;;;;9.43;2.33;;;;;;;2.14;100.00;97490.97;5073072;28;20020;-93
2023/01/16 05:05:48;;;;;;;19.27;4.07;;;;;;;2.10;100.00;97496.41;5072947;28;20033;-92
2023/01/16 05:08:16;;;;;;;19.05;2.83;;;;;;;2.06;100.00;97497.53;5072906;28;20032;-92
2023/01/16 05:10:41;;;;;;;18.50;2.55;;;;;;;2.02;100.00;97496.94;5072854;28;20359;-93
2023/01/16 05:13:07;;;;;;;9.43;2.17;;;;;;;2.00;100.00;97486.06;5072750;28;20050;-92
2023/01/16 05:15:32;;;;;;;15.43;2.22;;;;;;;1.90;100.00;97493.53;5072572;28;20027;-92
2023/01/16 05:17:58;;;;;;;9.18;2.28;;;;;;;1.87;100.00;97501.34;5072458;28;20028;-93
2023/01/16 05:20:23;;;;;;;11.75;2.97;;;;;;;1.93;100.00;97508.56;5072339;28;20493;-94
2023/01/16 05:22:49;;;;;;;9.70;2.15;;;;;;;1.94;100.00;97509.38;5072561;28;20481;-92
2023/01/16 05:25:15;;;;;;;12.35;2.60;;;;;;;2.06;100.00;97518.69;5072334;28;20029;-90
2023/01/16 05:27:40;;;;;;;11.32;2.13;;;;;;;1.97;100.00;97498.97;5072532;28;20029;-91
2023/01/16 05:30:06;;;;;;;8.82;2.10;;;;;;;1.95;100.00;97500.81;5072349;28;20024;-91
2023/01/16 05:32:32;;;;;;;8.80;2.35;;;;;;;2.00;100.00;97519.16;5072214;28;20027;-92
2023/01/16 05:35:00;;;;;;;9.23;1.70;;;;;;;2.04;100.00;97519.72;5073217;28;20103;-93
2023/01/16 05:37:26;;;;;;;9.68;1.73;;;;;;;1.99;100.00;97514.97;5071888;28;20496;-94
2023/01/16 05:39:51;;;;;;;5.30;2.25;;;;;;;1.95;100.00;97516.06;5071512;28;20056;-93
2023/01/16 05:42:24;;;;;;;7.22;1.92;;;;;;;2.05;100.00;97527.25;5072082;28;20436;-93
2023/01/16 05:44:51;;;;;;;6.63;1.90;;;;;;;2.08;100.00;97524.50;5072244;28;20030;-92
2023/01/16 05:47:18;;;;;;;5.75;1.88;;;;;;;2.12;100.00;97527.63;5072081;28;20032;-94
2023/01/16 05:49:43;;;;;;;11.20;2.03;;;;;;;2.04;100.00;97515.44;5088779;28;20078;-93
2023/01/16 05:52:09;;;;;;;7.97;1.70;;;;;;;2.21;100.00;97542.25;5072030;28;20029;-93
2023/01/16 05:54:34;;;;;;;7.03;1.45;;;;;;;2.11;100.00;97536.19;5071819;28;20020;-93
2023/01/16 05:57:00;;;;;;;7.32;1.40;;;;;;;2.01;100.00;97536.03;5071704;28;20044;-92
2023/01/16 05:59:25;;;;;;;8.38;1.60;;;;;;;2.00;100.00;97539.50;5071857;28;20436;-94
2023/01/16 06:01:51;;;;;;;6.35;1.90;;;;;;;1.96;100.00;97547.44;5071749;28;20025;-93
2023/01/16 06:04:18;;;;;;;9.85;1.52;;;;;;;1.92;100.00;97539.19;5071669;28;20539;-93
2023/01/16 06:06:44;;;;;;;6.63;1.83;;;;;;;1.76;100.00;97552.16;5071434;28;20032;-91
2023/01/16 06:09:10;;;;;;;8.05;1.33;;;;;;;1.68;100.00;97550.13;5071558;28;20031;-92
2023/01/16 06:11:35;;;;;;;6.50;1.52;;;;;;;1.77;100.00;97553.75;5071756;28;20021;-92
2023/01/16 06:14:03;;;;;;;10.90;1.50;;;;;;;1.80;100.00;97563.72;5071510;28;20035;-93
2023/01/16 06:16:29;;;;;;;5.95;1.40;;;;;;;1.82;100.00;97581.44;5071152;28;20035;-92
2023/01/16 06:18:54;;;;;;;3.20;1.45;;;;;;;1.80;100.00;97566.25;5071328;28;20031;-93
2023/01/16 06:21:20;;;;;;;4.55;1.65;;;;;;;1.77;100.00;97573.31;5071334;28;20029;-93
2023/01/16 06:23:45;;;;;;;5.50;1.38;;;;;;;1.77;100.00;97579.19;5071268;28;20024;-93
2023/01/16 06:26:11;;;;;;;7.30;1.42;;;;;;;1.77;100.00;97578.38;5071074;28;20035;-92
2023/01/16 06:28:37;;;;;;;6.60;1.65;;;;;;;1.70;100.00;97588.16;5071318;28;20067;-93
2023/01/16 06:31:03;;;;;;;11.07;1.40;;;;;;;1.63;100.00;97582.66;5071272;28;20478;-92
2023/01/16 06:33:29;;;;;;;3.03;1.13;;;;;;;1.51;100.00;97583.47;5071063;28;20025;-92
2023/01/16 06:35:55;;;;;;;7.13;1.42;;;;;;;1.58;100.00;97583.88;5071119;28;20027;-92
2023/01/16 06:38:20;;;;;;;9.48;1.40;;;;;;;1.62;100.00;97575.97;5071226;28;20032;-92
2023/01/16 06:40:46;;;;;;;6.80;1.00;;;;;;;1.64;100.00;97583.50;5070983;28;20111;-92
2023/01/16 06:43:11;;;;;;;4.13;1.17;;;;;;;1.59;100.00;97588.88;5071018;28;20028;-92
2023/01/16 06:45:37;;;;;;;4.30;1.02;;;;;;;1.67;100.00;97596.78;5071041;28;20082;-92
2023/01/16 06:48:03;;;;;;;5.13;1.20;;;;;;;1.73;100.00;97607.47;5070892;28;20029;-92
2023/01/16 06:50:28;;;;;;;2.78;0.93;;;;;;;1.77;100.00;97603.81;5070902;28;20029;-92
2023/01/16 06:52:54;;;;;;;2.88;1.25;;;;;;;1.80;100.00;97594.22;5071016;28;20509;-92
2023/01/16 06:55:19;;;;;;;2.85;1.13;;;;;;;1.90;100.00;97609.69;5072125;28;20532;-92
2023/01/16 06:57:45;;;;;;;7.85;1.00;;;;;;;1.84;100.00;97594.84;5070850;28;20036;-93
2023/01/16 07:00:12;;;;;;;4.00;0.95;;;;;;;1.90;100.00;97604.59;5071031;28;20018;-92
2023/01/16 07:02:39;;;;;;;3.97;1.20;;;;;;;1.95;100.00;97620.38;5070932;28;20051;-92
2023/01/16 07:05:09;;;;;;;3.35;0.75;;;;;;;1.92;100.00;97592.59;5071072;28;20031;-92
2023/01/16 07:07:35;;;;;;;5.63;0.95;;;;;;;1.93;100.00;97607.78;5071095;28;20028;-92
2023/01/16 07:10:02;;;;;;;3.80;0.85;;;;;;;1.96;100.00;97616.91;5071849;28;20029;-92
2023/01/16 07:12:28;;;;;;;4.25;0.70;;;;;;;1.92;100.00;97602.78;5071074;28;20116;-92
2023/01/16 07:23:29;;;;;;;4.63;2.15;;;;;;;2.12;100.00;97637.88;5052291;28;20548;-94
2023/01/16 07:25:58;;;;;;;5.35;1.48;;;;;;;2.05;100.00;97629.03;5069676;28;20033;-94
2023/01/16 07:28:24;;;;;;;4.13;0.70;;;;;;;2.10;100.00;97642.25;5064881;28;20363;-94
2023/01/16 07:30:50;;;;;;;4.20;0.80;;;;;;;1.98;100.00;97632.09;5052907;28;20108;-94
2023/01/16 07:33:15;;;;;;;1.25;0.80;;;;;;;1.99;100.00;97639.59;5064923;28;20040;-95
2023/01/16 07:35:41;;;;;;;1.95;0.80;;;;;;;1.76;100.00;97627.63;5072990;28;20067;-94
2023/01/16 07:38:07;;;;;;;2.17;0.70;;;;;;;1.84;100.00;97631.28;5060410;28;20061;-95
2023/01/16 07:40:32;;;;;;;1.20;0.70;;;;;;;1.86;100.00;97634.53;5051520;28;20065;-95
2023/01/16 07:42:58;;;;;;;1.27;0.98;;;;;;;1.91;100.00;97624.84;5062524;28;20048;-96
2023/01/16 07:45:23;;;;;;;1.13;0.60;;;;;;;2.12;100.00;97660.75;5069393;28;20094;-94
2023/01/16 07:47:49;;;;;;;0.77;0.55;;;;;;;2.09;100.00;97650.78;5069487;28;20025;-94
2023/01/16 07:50:15;;;;;;;1.10;0.63;;;;;;;2.01;100.00;97642.84;5075181;28;20029;-95
2023/01/16 07:52:43;;;;;;;0.50;0.50;;;;;;;2.10;100.00;97642.25;5075450;28;20029;-93
2023/01/16 07:55:09;;;;;;;2.30;0.57;;;;;;;2.00;100.00;97635.31;5074955;28;20046;-94
2023/01/16 07:57:36;;;;;;;0.88;0.70;;;;;;;2.05;100.00;97653.63;5072884;28;20428;-94
2023/01/16 08:00:03;;;;;;;3.10;0.77;;;;;;;1.96;100.00;97646.63;5073780;28;20021;-94
2023/01/16 08:02:30;;;;;;;1.90;0.60;;;;;;;2.03;100.00;97676.63;5074262;28;20028;-95
2023/01/16 08:04:55;;;;;;;1.17;0.70;;;;;;;1.83;100.00;97651.72;5075815;28;20070;-94
2023/01/16 08:07:21;;;;;;;2.20;0.50;;;;;;;1.85;100.00;97667.69;5074552;28;20127;-95
2023/01/16 08:09:46;;;;;;;1.08;0.45;;;;;;;2.11;100.00;97688.84;5075074;28;20075;-95
2023/01/16 08:12:12;;;;;;;1.60;1.23;;;;;;;2.00;100.00;97666.69;5074672;28;20032;-95
2023/01/16 08:14:38;;;;;;;1.40;1.10;;;;;;;2.10;100.00;97682.13;5077313;28;20070;-94
2023/01/16 08:17:05;;;;;;;1.45;0.60;;;;;;;2.08;100.00;97663.63;5077279;28;20555;-94
2023/01/16 08:19:30;;;;;;;1.35;0.70;;;;;;;2.21;100.00;97694.13;5077528;28;20024;-95
2023/01/16 08:21:56;;;;;;;1.42;0.63;;;;;;;2.21;100.00;97697.47;5076145;28;20477;-95
2023/01/16 08:24:23;;;;;;;1.90;1.00;;;;;;;2.30;100.00;97718.97;5094576;28;20021;-94
2023/01/16 08:26:48;;;;;;;1.52;1.17;;;;;;;2.22;100.00;97704.22;5076537;28;20111;-94
2023/01/16 08:29:14;;;;;;;0.70;0.70;;;;;;;2.16;100.00;97696.16;5076521;28;20066;-94
2023/01/16 08:31:40;;;;;;;2.45;1.08;;;;;;;2.37;100.00;97714.28;5077939;28;20028;-94
2023/01/16 08:34:05;;;;;;;1.05;0.80;;;;;;;2.35;100.00;97706.75;5094978;28;20069;-95
2023/01/16 08:36:31;;;;;;;1.15;0.65;;;;;;;2.45;100.00;97722.19;5076462;28;20039;-94
2023/01/16 08:38:56;;;;;;;0.90;0.60;;;;;;;2.44;100.00;97716.31;5076116;28;20020;-95
2023/01/16 08:52:30;;;;;;;0.73;0.47;;;;;;;2.35;100.00;97743.19;5078878;28;20120;-94
2023/01/16 08:54:57;;;;;;;0.55;0.47;;;;;;;2.49;100.00;97759.28;5077122;28;20052;-95
2023/01/16 08:57:23;;;;;;;1.08;0.50;;;;;;;2.35;100.00;97748.28;5076265;28;20036;-95
2023/01/16 08:59:48;;;;;;;0.60;0.45;;;;;;;2.24;100.00;97742.25;5074795;28;20029;-96
2023/01/16 09:02:14;;;;;;;2.33;0.55;;;;;;;2.33;100.00;97744.19;5056949;28;20524;-94
2023/01/16 09:04:40;;;;;;;1.23;0.68;;;;;;;2.24;100.00;97749.91;5057100;28;20091;-96
2023/01/16 09:07:06;;;;;;;0.80;0.50;;;;;;;2.36;100.00;97769.44;5057875;28;20028;-95
2023/01/16 09:09:31;;;;;;;2.05;0.88;;;;;;;2.70;100.00;97777.34;5074142;28;20024;-94
2023/01/16 09:15:05;;;;;;;1.27;0.50;;;;;;;3.10;100.00;97744.06;5081402;28;20081;-95
2023/01/16 09:17:30;;;;;;;0.70;0.60;;;;;;;3.41;100.00;97780.91;5076620;28;20029;-96
2023/01/16 09:19:56;;;;;;;1.25;0.80;;;;;;;3.59;100.00;97768.63;5073499;28;20032;-96
2023/01/16 09:22:23;;;;;;;1.40;0.90;;;;;;;3.41;100.00;97761.38;5074291;28;20527;-96
2023/01/16 09:24:48;;;;;;;1.02;0.60;;;;;;;3.23;100.00;97752.44;5044082;28;20083;-96
2023/01/16 09:27:14;;;;;;;1.40;0.57;;;;;;;3.30;100.00;97768.13;5034252;28;20025;-96
2023/01/16 09:29:41;;;;;;;2.08;1.52;;;;;;;3.24;100.00;97760.91;5052749;28;20033;-96
2023/01/16 09:32:08;;;;;;;0.38;0.30;;;;;;;3.54;100.00;97802.09;5053881;28;20083;-96
2023/01/16 09:34:38;;;;;;;1.27;0.40;;;;;;;3.59;100.00;97809.44;5053598;28;20032;-95
2023/01/16 09:37:05;;;;;;;0.63;0.52;;;;;;;3.59;100.00;97802.59;5052896;28;20025;-96
2023/01/16 09:39:31;;;;;;;2.85;0.50;;;;;;;3.67;99.01;97793.56;5038303;28;20621;-95
2023/01/16 09:45:18;;;;;;;1.67;0.40;;;;;;;4.39;91.02;97812.09;5034663;28;20103;-96
2023/01/16 09:47:49;;;;;;;0.60;0.40;;;;;;;4.61;91.10;97808.75;5036607;28;20017;-95
2023/01/16 09:50:17;;;;;;;0.90;0.60;;;;;;;4.66;92.38;97834.78;5051033;28;20021;-96
2023/01/16 09:58:36;;;;;;;;;;;;;;;4.44;92.21;97839.84;5052338;28;20445;-96
2023/01/16 10:01:02;;;;;;;5.47;1.08;;;;;;;4.27;91.12;97802.81;5050686;28;19920;-96
2023/01/16 10:03:28;;;;;;;1.02;0.70;;;;;;;4.28;91.21;97818.00;5065838;28;20058;-96
2023/01/16 10:06:31;;;;;;;5.13;2.20;;;;;;;4.57;89.60;97816.75;5061049;28;20033;-96
2023/01/16 10:09:23;;;;;;;1.77;1.02;;;;;;;4.71;85.87;97837.00;5053040;28;20021;-96
2023/01/16 10:12:04;;;;;;;0.77;0.68;;;;;;;4.65;87.35;97856.13;5049390;28;20025;-96
2023/01/16 10:14:38;;;;;;;2.85;0.90;;;;;;;4.60;87.65;97857.41;5053121;28;20030;-95
2023/01/16 10:17:19;;;;;;;2.75;1.33;;;;;;;4.57;87.47;97861.00;5051877;28;20033;-95
2023/01/16 10:20:13;;;;;;;3.33;1.60;;;;;;;4.58;88.01;97870.28;5053997;28;20036;-94
2023/01/16 10:22:52;;;;;;;1.65;0.50;;;;;;;4.24;87.78;97846.41;5049756;28;20056;-94
2023/01/16 10:25:35;;;;;;;1.38;0.50;;;;;;;4.07;89.36;97847.63;5039533;28;20032;-95
2023/01/16 10:28:25;;;;;;;2.17;0.80;;;;;;;4.25;89.19;97871.84;5040217;28;20017;-95
2023/01/16 10:31:02;;;;;;;0.82;0.38;;;;;;;4.03;90.81;97851.34;5053819;28;20621;-96
2023/01/16 10:33:40;;;;;;;1.02;0.65;;;;;;;4.02;91.42;97849.69;5039202;28;20030;-95
2023/01/16 10:36:11;;;;;;;0.38;0.28;;;;;;;4.21;90.62;97867.88;5049225;28;20022;-95
2023/01/16 10:38:45;;;;;;;0.52;0.50;;;;;;;4.16;90.67;97862.28;5035435;28;20025;-96
2023/01/16 10:49:52;;;;;;;3.35;1.92;;;;;;;4.04;92.01;97881.03;5034476;28;20040;-94
2023/01/16 10:52:18;;;;;;;0.70;0.57;;;;;;;4.00;90.91;97861.75;5033381;28;20455;-95
2023/01/16 10:54:43;;;;;;;7.05;3.75;;;;;;;4.02;90.77;97845.44;5033691;28;20114;-96
2023/01/16 10:57:17;;;;;;;1.00;0.60;;;;;;;4.34;87.83;97874.63;5043720;28;20036;-96
2023/01/16 10:59:46;;;;;;;2.13;0.85;;;;;;;4.39;88.47;97852.13;5045527;28;20134;-95
2023/01/16 11:02:33;;;;;;;2.00;1.13;;;;;;;4.64;85.86;97853.69;5034600;28;20026;-96
2023/01/16 11:05:01;;;;;;;3.97;1.60;;;;;;;4.79;86.00;97864.50;5033518;28;20118;-95
2023/01/16 11:07:29;;;;;;;3.90;2.20;;;;;;;5.24;84.08;97884.94;5033150;28;20029;-95
2023/01/16 11:09:55;;;;;;;7.18;3.65;;;;;;;5.14;84.50;97879.72;5033194;28;20022;-96
2023/01/16 11:18:28;;;;;;;7.32;3.53;;;;;;;6.88;75.25;97899.25;5036630;28;20052;-96
2023/01/16 11:20:57;;;;;;;5.50;2.53;;;;;;;6.78;75.29;97879.53;5045282;28;20045;-96
2023/01/16 11:23:26;;;;;;;5.28;2.85;;;;;;;6.48;75.60;97882.03;5048898;28;20266;-96
2023/01/16 11:26:01;;;;;;;3.38;1.83;;;;;;;6.17;78.09;97884.53;5049695;28;20120;-95
2023/01/16 11:28:31;;;;;;;1.63;0.65;;;;;;;6.12;79.23;97873.81;5056726;28;20025;-96
2023/01/16 11:31:18;;;;;;;5.47;3.25;;;;;;;6.64;79.53;97877.28;5032682;28;20061;-96
2023/01/16 11:33:59;;;;;;;3.42;1.88;;;;;;;7.26;76.50;97862.72;5032010;28;20029;-96
2023/01/16 11:36:30;;;;;;;5.50;1.13;;;;;;;6.80;76.99;97892.22;5032951;28;20093;-96
2023/01/16 11:38:56;;;;;;;11.73;3.92;;;;;;;6.60;77.43;97863.09;5035096;28;20026;-94
2023/01/16 11:41:34;;;;;;;9.05;3.30;;;;;;;6.31;78.49;97866.28;5036397;28;20025;-96
2023/01/16 11:47:12;;;;;;;5.82;2.28;;;;;;;6.20;79.37;97858.69;5057679;28;20076;-96
2023/01/16 11:49:43;;;;;;;8.93;3.63;;;;;;;6.45;79.28;97864.38;5056432;28;20028;-96
2023/01/16 11:52:26;;;;;;;6.90;3.23;;;;;;;7.06;74.55;97872.09;5056530;28;20028;-96
2023/01/16 11:55:03;;;;;;;5.07;1.65;;;;;;;8.19;71.43;97860.66;5056316;28;20116;-96
2023/01/16 11:57:47;;;;;;;4.22;1.17;;;;;;;9.80;64.09;97887.88;5055251;28;20025;-96
2023/01/16 12:00:43;;;;;;;4.53;1.98;;;;;;;8.76;65.47;97894.97;5038349;28;20483;-96
2023/01/16 12:03:47;;;;;;;21.10;6.40;;;;;;;9.23;64.87;97851.19;5053142;28;20218;-96
2023/01/16 12:06:30;;;;;;;10.88;3.15;;;;;;;9.25;64.55;97885.31;5052644;28;20407;-96
2023/01/16 12:09:19;;;;;;;12.15;3.80;;;;;;;9.64;61.80;97857.59;5052634;28;20029;-95
2023/01/16 12:11:57;;;;;;;2.67;1.20;;;;;;;9.50;59.74;97870.16;5053036;28;20057;-96
2023/01/16 12:14:43;;;;;;;1.52;1.10;;;;;;;8.81;60.00;97884.28;5052043;28;20017;-96
2023/01/16 12:17:39;;;;;;;0.88;0.30;;;;;;;7.57;63.96;97891.69;5036479;28;20041;-96
2023/01/16 12:20:24;;;;;;;0.98;0.25;;;;;;;6.69;67.23;97864.09;5037458;28;20041;-96
2023/01/16 12:23:30;;;;;;;2.83;0.52;;;;;;;6.30;68.31;97889.47;5037309;28;20395;-96
2023/01/16 12:25:59;;;;;;;0.28;0.20;;;;;;;5.57;71.82;97897.69;5037524;28;20060;-96
2023/01/16 12:28:25;;;;;;;1.35;0.40;;;;;;;5.27;73.43;97900.09;5038162;28;20361;-95
2023/01/16 12:33:59;;;;;;;0.90;0.40;;;;;;;5.09;75.28;97892.03;5038904;28;20660;-95
2023/01/16 12:37:01;;;;;;;3.50;0.40;;;;;;;5.00;75.64;97895.28;5053938;28;20048;-96
2023/01/16 12:40:16;;;;;;;6.30;0.30;;;;;;;4.50;76.39;97870.03;5054002;28;20030;-95
2023/01/16 12:43:22;;;;;;;2.08;0.30;;;;;;;4.55;77.10;97860.28;5033276;28;20034;-96
2023/01/16 12:46:06;;;;;;;2.60;0.68;;;;;;;4.72;75.60;97862.41;5056035;28;20116;-96